Time;durP1;ratioP1;P1;durP2;ratioP2;P2;SDS_P1;SDS_P2;PMS_P1;PMS_P2;Temp;Humidity;BMP_temperature;BMP_pressure;BME280_temperature;BME280_humidity;BME280_pressure;Samples;Min_cycle;Max_cycle;Signal;HPM_P1;HPM_P2
2021/11/16 00:01:22;;;;;;;28.60;14.73;;;;;;;;;;5037861;28;20654;-65
2021/11/16 00:03:47;;;;;;;29.52;13.88;;;;;;;;;;5050480;28;20033;-65
2021/11/16 00:06:12;;;;;;;27.02;13.95;;;;;;;;;;5047718;28;20036;-65
2021/11/16 00:08:38;;;;;;;27.25;13.80;;;;;;;;;;5049117;28;20445;-65
2021/11/16 00:11:04;;;;;;;28.52;14.20;;;;;;;;;;5050134;28;20486;-66
2021/11/16 00:13:40;;;;;;;24.99;12.85;;;;;;;;;;4345696;28;10020643;-65
2021/11/16 00:16:06;;;;;;;28.70;14.32;;;;;;;;;;4696222;28;10000231;-65
2021/11/16 00:18:32;;;;;;;28.65;14.68;;;;;;;;;;5039782;28;20017;-65
2021/11/16 00:20:58;;;;;;;27.15;13.63;;;;;;;;;;5044737;28;21682;-65
2021/11/16 00:23:32;;;;;;;29.23;13.57;;;;;;;;;;5049038;28;20028;-65
2021/11/16 00:25:58;;;;;;;27.40;14.48;;;;;;;;;;5049742;28;20075;-65
2021/11/16 00:28:24;;;;;;;23.92;12.90;;;;;;;;;;5051668;28;20021;-65
2021/11/16 00:30:50;;;;;;;28.50;13.65;;;;;;;;;;5036737;28;20041;-65
2021/11/16 00:33:17;;;;;;;27.83;13.43;;;;;;;;;;5057180;28;20033;-65
2021/11/16 00:35:43;;;;;;;27.52;13.05;;;;;;;;;;5053685;28;20040;-65
2021/11/16 00:38:11;;;;;;;25.65;12.85;;;;;;;;;;5050849;28;20040;-65
2021/11/16 00:40:38;;;;;;;;;;;;;;;;;;5034755;28;20029;-65
2021/11/16 00:43:07;;;;;;;;;;;;;;;;;;5055813;28;20016;-65
2021/11/16 00:45:32;;;;;;;23.60;11.68;;;;;;;;;;5041524;28;19967;-65
2021/11/16 00:47:58;;;;;;;24.02;12.15;;;;;;;;;;5051106;28;20358;-66
2021/11/16 00:50:23;;;;;;;27.80;13.38;;;;;;;;;;5057434;28;20082;-65
2021/11/16 00:52:49;;;;;;;27.52;13.15;;;;;;;;;;5048602;28;20081;-65
2021/11/16 00:55:15;;;;;;;23.45;12.80;;;;;;;;;;5048078;28;20037;-65
2021/11/16 00:57:41;;;;;;;22.77;12.52;;;;;;;;;;5046830;28;20017;-65
2021/11/16 01:00:09;;;;;;;24.42;12.60;;;;;;;;;;5050578;28;20033;-65
2021/11/16 01:02:34;;;;;;;25.15;14.05;;;;;;;;;;5049424;28;20036;-65
2021/11/16 01:05:01;;;;;;;25.88;13.13;;;;;;;;;;5053837;28;20531;-65
2021/11/16 01:07:26;;;;;;;28.40;13.63;;;;;;;;;;5057392;28;20071;-65
2021/11/16 01:09:51;;;;;;;25.70;13.27;;;;;;;;;;5051308;28;20025;-65
2021/11/16 01:12:17;;;;;;;26.10;13.43;;;;;;;;;;5052992;28;20106;-66
2021/11/16 01:14:45;;;;;;;25.20;13.18;;;;;;;;;;5052601;28;20032;-65
2021/11/16 01:17:12;;;;;;;24.38;12.70;;;;;;;;;;5048923;28;20020;-65
2021/11/16 01:19:38;;;;;;;26.30;13.40;;;;;;;;;;5044871;28;20026;-65
2021/11/16 01:22:04;;;;;;;25.60;12.65;;;;;;;;;;5045925;28;20094;-65
2021/11/16 01:24:29;;;;;;;27.13;13.90;;;;;;;;;;5045500;28;20378;-65
2021/11/16 01:26:55;;;;;;;27.42;13.52;;;;;;;;;;5047696;28;20367;-65
2021/11/16 01:29:21;;;;;;;28.92;13.80;;;;;;;;;;5047039;28;20032;-65
2021/11/16 01:31:50;;;;;;;28.98;13.85;;;;;;;;;;5047233;28;20024;-65
2021/11/16 01:34:23;;;;;;;27.17;13.27;;;;;;;;;;5045412;28;20035;-65
2021/11/16 01:36:49;;;;;;;29.20;13.85;;;;;;;;;;5071097;28;20033;-65
2021/11/16 01:39:15;;;;;;;24.58;12.43;;;;;;;;;;5054746;28;20029;-65
2021/11/16 01:41:41;;;;;;;27.13;13.18;;;;;;;;;;5049289;28;20037;-65
2021/11/16 01:44:06;;;;;;;26.13;13.00;;;;;;;;;;5057600;28;20032;-65
2021/11/16 01:46:32;;;;;;;26.08;12.85;;;;;;;;;;5066951;28;20031;-65
2021/11/16 01:48:58;;;;;;;24.75;12.57;;;;;;;;;;5044618;28;20455;-65
2021/11/16 01:51:28;;;;;;;28.23;13.57;;;;;;;;;;5049126;28;20040;-65
2021/11/16 01:54:01;;;;;;;26.67;12.75;;;;;;;;;;5046448;28;20033;-65
2021/11/16 01:56:31;;;;;;;26.70;13.13;;;;;;;;;;5048295;28;20032;-65
2021/11/16 01:58:58;;;;;;;24.00;12.27;;;;;;;;;;5049254;28;20031;-65
2021/11/16 02:01:28;;;;;;;23.55;12.43;;;;;;;;;;5045435;28;20047;-65
2021/11/16 02:03:54;;;;;;;23.63;12.18;;;;;;;;;;5064245;28;20464;-65
2021/11/16 02:06:21;;;;;;;24.80;13.10;;;;;;;;;;5046429;28;20116;-65
2021/11/16 02:08:49;;;;;;;23.45;12.40;;;;;;;;;;5053698;28;20024;-65
2021/11/16 02:11:15;;;;;;;22.35;12.38;;;;;;;;;;5044232;28;20028;-65
2021/11/16 02:13:40;;;;;;;26.63;13.48;;;;;;;;;;5052083;28;20670;-65
2021/11/16 02:16:06;;;;;;;24.63;13.30;;;;;;;;;;5047802;28;20036;-65
2021/11/16 02:18:31;;;;;;;23.13;12.15;;;;;;;;;;5052872;28;20026;-65
2021/11/16 02:20:57;;;;;;;23.85;12.30;;;;;;;;;;5048963;28;20036;-65
2021/11/16 02:23:23;;;;;;;23.85;12.40;;;;;;;;;;5046576;28;20036;-65
2021/11/16 02:25:49;;;;;;;26.30;12.82;;;;;;;;;;5049233;28;20572;-65
2021/11/16 02:28:17;;;;;;;23.92;12.20;;;;;;;;;;5043583;28;20035;-65
2021/11/16 02:30:44;;;;;;;;;;;;;;;;;;5034367;28;20033;-65
2021/11/16 02:33:09;;;;;;;;;;;;;;;;;;5046465;28;19967;-66
2021/11/16 02:35:35;;;;;;;24.75;11.38;;;;;;;;;;5058490;28;19916;-65
2021/11/16 02:38:00;;;;;;;24.80;12.30;;;;;;;;;;5054051;28;20052;-65
2021/11/16 02:40:27;;;;;;;27.10;13.25;;;;;;;;;;5034882;28;20035;-65
2021/11/16 02:42:53;;;;;;;27.40;13.53;;;;;;;;;;5054479;28;20108;-65
2021/11/16 02:45:20;;;;;;;25.23;12.33;;;;;;;;;;5045521;28;20029;-65
2021/11/16 02:47:46;;;;;;;24.73;13.23;;;;;;;;;;5060586;28;20012;-65
2021/11/16 02:50:13;;;;;;;25.88;13.20;;;;;;;;;;5050966;28;20032;-65
2021/11/16 02:52:38;;;;;;;24.13;12.77;;;;;;;;;;5047077;28;20040;-65
2021/11/16 02:55:08;;;;;;;26.25;13.23;;;;;;;;;;5050977;28;20035;-65
2021/11/16 02:57:35;;;;;;;27.67;13.77;;;;;;;;;;5050644;28;20043;-65
2021/11/16 03:00:05;;;;;;;27.45;13.07;;;;;;;;;;5040942;28;20071;-65
2021/11/16 03:02:31;;;;;;;25.20;13.02;;;;;;;;;;5053189;28;20037;-65
2021/11/16 03:04:56;;;;;;;25.83;12.95;;;;;;;;;;5050118;28;20048;-65
2021/11/16 03:07:55;;;;;;;22.95;11.88;;;;;;;;;;5052564;28;20048;-65
2021/11/16 03:10:25;;;;;;;25.80;12.68;;;;;;;;;;5032449;28;20108;-66
2021/11/16 03:12:51;;;;;;;27.73;13.32;;;;;;;;;;5049404;28;20021;-65
2021/11/16 03:15:16;;;;;;;25.38;13.07;;;;;;;;;;5044127;28;20033;-65
2021/11/16 03:17:42;;;;;;;26.33;13.75;;;;;;;;;;5047273;28;20025;-65
2021/11/16 03:20:12;;;;;;;28.88;13.35;;;;;;;;;;5044845;28;20036;-65
2021/11/16 03:22:55;;;;;;;25.02;13.23;;;;;;;;;;5051767;28;20033;-65
2021/11/16 03:25:26;;;;;;;24.67;13.23;;;;;;;;;;5035305;28;20029;-65
2021/11/16 03:27:57;;;;;;;25.05;12.95;;;;;;;;;;5048261;28;20017;-65
2021/11/16 03:30:23;;;;;;;25.27;12.40;;;;;;;;;;5032514;28;20387;-65
2021/11/16 03:32:49;;;;;;;28.77;12.65;;;;;;;;;;5054498;28;20414;-65
2021/11/16 03:35:15;;;;;;;23.75;12.93;;;;;;;;;;5049726;28;20062;-65
2021/11/16 03:37:48;;;;;;;26.70;12.30;;;;;;;;;;5053185;28;20024;-65
2021/11/16 03:40:16;;;;;;;25.80;12.43;;;;;;;;;;5043328;28;20032;-65
2021/11/16 03:42:46;;;;;;;21.40;11.20;;;;;;;;;;5054097;28;20021;-65
2021/11/16 03:45:13;;;;;;;26.85;12.93;;;;;;;;;;5052657;28;20033;-65
2021/11/16 03:47:38;;;;;;;23.58;12.20;;;;;;;;;;5052727;28;20701;-65
2021/11/16 03:50:07;;;;;;;33.28;13.13;;;;;;;;;;5048250;28;20123;-65
2021/11/16 03:52:35;;;;;;;29.13;12.80;;;;;;;;;;5052602;28;20055;-65
2021/11/16 03:55:02;;;;;;;26.05;12.77;;;;;;;;;;5043108;28;20136;-66
2021/11/16 03:57:29;;;;;;;23.17;12.18;;;;;;;;;;5047947;28;20532;-65
2021/11/16 03:59:54;;;;;;;27.37;12.50;;;;;;;;;;5041159;28;20029;-65
2021/11/16 04:02:20;;;;;;;24.65;12.77;;;;;;;;;;5047297;28;20082;-65
2021/11/16 04:04:48;;;;;;;22.25;11.88;;;;;;;;;;5058166;28;20028;-65
2021/11/16 04:07:13;;;;;;;23.17;12.35;;;;;;;;;;5056954;28;20185;-65
2021/11/16 04:09:41;;;;;;;28.65;12.38;;;;;;;;;;5048946;28;20129;-65
2021/11/16 04:12:06;;;;;;;;;;;;;;;;;;5042968;28;20103;-65
2021/11/16 04:14:31;;;;;;;25.00;11.98;;;;;;;;;;5055793;28;20429;-65
2021/11/16 04:16:57;;;;;;;25.25;12.10;;;;;;;;;;5051775;28;20090;-65
2021/11/16 04:19:22;;;;;;;26.85;12.98;;;;;;;;;;5036623;28;20064;-65
2021/11/16 04:21:48;;;;;;;25.50;12.77;;;;;;;;;;5039879;28;20025;-65
2021/11/16 04:24:13;;;;;;;26.23;13.68;;;;;;;;;;5044534;28;20394;-65
2021/11/16 04:26:38;;;;;;;26.50;13.35;;;;;;;;;;5049164;28;20032;-65
2021/11/16 04:29:05;;;;;;;25.40;13.00;;;;;;;;;;5052002;28;20024;-65
2021/11/16 04:31:31;;;;;;;25.77;12.77;;;;;;;;;;5049748;28;20021;-65
2021/11/16 04:34:05;;;;;;;26.83;13.45;;;;;;;;;;5043503;28;20032;-65
2021/11/16 04:36:31;;;;;;;27.00;13.10;;;;;;;;;;5051798;28;20056;-65
2021/11/16 04:38:56;;;;;;;26.27;12.98;;;;;;;;;;5044345;28;20486;-65
2021/11/16 04:41:22;;;;;;;25.40;12.90;;;;;;;;;;5049339;28;20043;-65
2021/11/16 04:43:47;;;;;;;27.20;13.15;;;;;;;;;;5059553;28;20021;-65
2021/11/16 04:46:17;;;;;;;26.13;12.50;;;;;;;;;;5050184;28;20029;-65
2021/11/16 04:54:12;;;;;;;24.48;12.75;;;;;;;;;;5042703;28;20390;-65
2021/11/16 05:04:55;;;;;;;27.25;12.27;;;;;;;;;;5051450;28;20672;-65
2021/11/16 05:07:22;;;;;;;25.80;12.50;;;;;;;;;;5044311;28;20025;-65
2021/11/16 05:09:54;;;;;;;24.35;12.45;;;;;;;;;;5058817;28;20040;-65
2021/11/16 05:12:22;;;;;;;26.48;13.20;;;;;;;;;;5053520;28;20115;-65
2021/11/16 05:14:47;;;;;;;25.10;12.63;;;;;;;;;;5052759;28;20434;-65
2021/11/16 05:17:13;;;;;;;25.50;12.75;;;;;;;;;;5037646;28;20066;-65
2021/11/16 05:19:39;;;;;;;28.35;12.23;;;;;;;;;;5051742;28;20394;-65
2021/11/16 05:22:06;;;;;;;28.63;13.23;;;;;;;;;;5047083;28;20033;-65
2021/11/16 05:24:31;;;;;;;30.92;13.60;;;;;;;;;;5045667;28;20029;-65
2021/11/16 05:26:57;;;;;;;28.30;13.30;;;;;;;;;;5040627;28;20027;-65
2021/11/16 05:29:22;;;;;;;28.08;13.90;;;;;;;;;;5034099;28;20025;-65
2021/11/16 05:31:48;;;;;;;26.00;13.02;;;;;;;;;;5034102;28;20028;-65
2021/11/16 05:34:13;;;;;;;26.95;12.95;;;;;;;;;;5034523;28;20029;-65
2021/11/16 05:36:39;;;;;;;25.20;12.90;;;;;;;;;;5045513;28;20025;-66
2021/11/16 05:39:05;;;;;;;25.88;13.15;;;;;;;;;;5048132;28;20106;-65
2021/11/16 05:41:31;;;;;;;24.73;12.70;;;;;;;;;;5047104;28;21768;-65
2021/11/16 05:43:58;;;;;;;29.27;13.50;;;;;;;;;;5039566;28;20115;-65
2021/11/16 05:46:24;;;;;;;24.58;12.57;;;;;;;;;;5030579;28;20643;-65
2021/11/16 05:48:53;;;;;;;29.33;14.05;;;;;;;;;;5048146;28;20036;-65
2021/11/16 05:51:25;;;;;;;29.35;13.88;;;;;;;;;;5049068;28;20032;-65
2021/11/16 05:53:56;;;;;;;29.25;13.38;;;;;;;;;;5047782;28;20036;-65
2021/11/16 05:56:27;;;;;;;27.95;13.98;;;;;;;;;;5043890;28;20029;-65
2021/11/16 05:58:53;;;;;;;32.85;14.88;;;;;;;;;;5045242;28;20068;-65
2021/11/16 06:01:25;;;;;;;29.00;14.68;;;;;;;;;;5035794;28;20048;-65
2021/11/16 06:03:53;;;;;;;29.90;14.63;;;;;;;;;;5059123;28;20028;-65
2021/11/16 06:06:27;;;;;;;26.70;13.88;;;;;;;;;;5042028;28;20059;-66
2021/11/16 06:08:54;;;;;;;26.95;13.60;;;;;;;;;;5052009;28;20021;-66
2021/11/16 06:11:22;;;;;;;30.92;15.20;;;;;;;;;;5043711;28;20487;-65
2021/11/16 06:13:49;;;;;;;28.67;14.07;;;;;;;;;;5063285;28;20486;-65
2021/11/16 06:16:15;;;;;;;26.25;13.93;;;;;;;;;;5045366;28;20116;-66
2021/11/16 06:18:41;;;;;;;29.45;14.75;;;;;;;;;;5046716;28;20029;-66
2021/11/16 06:21:07;;;;;;;28.77;14.02;;;;;;;;;;5055611;28;20367;-65
2021/11/16 06:23:33;;;;;;;30.40;13.55;;;;;;;;;;5050412;28;20060;-66
2021/11/16 06:26:02;;;;;;;28.75;14.23;;;;;;;;;;5049133;28;20025;-66
2021/11/16 06:28:27;;;;;;;32.38;15.00;;;;;;;;;;5053530;28;20025;-66
2021/11/16 06:30:53;;;;;;;30.27;14.80;;;;;;;;;;5044449;28;20037;-66
2021/11/16 06:33:20;;;;;;;29.48;14.32;;;;;;;;;;5058698;28;20029;-66
2021/11/16 06:35:45;;;;;;;31.88;14.82;;;;;;;;;;5063141;28;20028;-65
2021/11/16 06:38:11;;;;;;;31.40;14.23;;;;;;;;;;5061667;28;20032;-66
2021/11/16 06:40:47;;;;;;;28.05;13.35;;;;;;;;;;5051452;28;20064;-66
2021/11/16 06:43:30;;;;;;;27.42;14.18;;;;;;;;;;5052270;28;20029;-66
2021/11/16 06:45:58;;;;;;;29.60;14.45;;;;;;;;;;5050169;28;20036;-66
2021/11/16 06:48:24;;;;;;;30.48;15.10;;;;;;;;;;5055267;28;20108;-66
2021/11/16 06:50:51;;;;;;;31.17;14.32;;;;;;;;;;5049696;28;20549;-66
2021/11/16 06:53:24;;;;;;;27.45;13.90;;;;;;;;;;5048762;28;20052;-66
2021/11/16 06:55:50;;;;;;;29.02;13.82;;;;;;;;;;5048430;28;20026;-65
2021/11/16 06:58:16;;;;;;;27.85;13.77;;;;;;;;;;5051413;28;20461;-65
2021/11/16 07:00:41;;;;;;;28.83;14.80;;;;;;;;;;5042017;28;20104;-65
2021/11/16 07:03:08;;;;;;;30.17;14.05;;;;;;;;;;5043044;28;20082;-66
2021/11/16 07:05:34;;;;;;;31.67;13.90;;;;;;;;;;5041836;28;20535;-66
2021/11/16 07:08:00;;;;;;;32.00;14.32;;;;;;;;;;5041820;28;20017;-66
2021/11/16 07:10:31;;;;;;;28.65;14.43;;;;;;;;;;5041743;28;20030;-66
2021/11/16 07:13:04;;;;;;;29.20;14.00;;;;;;;;;;5046570;28;20103;-66
2021/11/16 07:15:34;;;;;;;30.15;13.93;;;;;;;;;;5047597;28;20055;-66
2021/11/16 07:18:04;;;;;;;32.60;14.77;;;;;;;;;;5053842;28;20036;-66
2021/11/16 07:20:30;;;;;;;31.08;13.75;;;;;;;;;;5044210;28;20120;-66
2021/11/16 07:22:57;;;;;;;27.08;13.70;;;;;;;;;;5046184;28;20068;-66
2021/11/16 07:25:22;;;;;;;27.52;14.15;;;;;;;;;;5044256;28;20665;-67
2021/11/16 07:27:55;;;;;;;27.25;13.50;;;;;;;;;;5048592;28;20036;-67
2021/11/16 07:30:32;;;;;;;28.95;13.57;;;;;;;;;;5040853;28;20021;-67
2021/11/16 07:33:01;;;;;;;28.92;13.85;;;;;;;;;;5045662;28;20028;-67
2021/11/16 07:35:31;;;;;;;26.40;12.98;;;;;;;;;;5062663;28;20534;-67
2021/11/16 07:38:04;;;;;;;26.40;13.05;;;;;;;;;;5065489;28;20025;-67
2021/11/16 07:40:32;;;;;;;28.00;13.75;;;;;;;;;;5051648;28;20485;-67
2021/11/16 07:42:57;;;;;;;;;;;;;;;;;;5048053;28;20025;-67
2021/11/16 07:45:26;;;;;;;26.65;13.50;;;;;;;;;;5048473;28;19959;-67
2021/11/16 07:47:54;;;;;;;28.17;13.13;;;;;;;;;;5055561;28;20029;-67
2021/11/16 07:50:40;;;;;;;28.00;13.40;;;;;;;;;;5042313;28;20478;-67
2021/11/16 07:53:23;;;;;;;26.05;12.98;;;;;;;;;;5049334;28;20045;-67
2021/11/16 07:55:56;;;;;;;29.48;13.82;;;;;;;;;;5034470;28;20033;-67
2021/11/16 07:58:24;;;;;;;26.35;13.13;;;;;;;;;;5040200;28;20029;-67
2021/11/16 08:00:50;;;;;;;27.23;13.38;;;;;;;;;;5033980;28;20102;-67
2021/11/16 08:03:20;;;;;;;29.20;13.40;;;;;;;;;;5037531;28;20057;-67
2021/11/16 08:08:27;;;;;;;24.30;12.10;;;;;;;;;;5049462;28;20052;-67
2021/11/16 08:14:05;;;;;;;27.87;13.73;;;;;;;;;;5047952;28;20033;-67
2021/11/16 08:16:31;;;;;;;25.85;13.43;;;;;;;;;;5045416;28;20300;-67
2021/11/16 08:19:09;;;;;;;29.15;14.35;;;;;;;;;;5040075;28;20493;-67
2021/11/16 08:21:37;;;;;;;28.83;14.40;;;;;;;;;;5035193;28;20029;-67
2021/11/16 08:24:08;;;;;;;29.77;14.15;;;;;;;;;;5034390;28;20523;-67
2021/11/16 08:26:47;;;;;;;31.05;15.15;;;;;;;;;;5042291;28;20040;-67
2021/11/16 08:29:16;;;;;;;30.13;15.18;;;;;;;;;;5039933;28;20021;-67
2021/11/16 08:31:50;;;;;;;32.67;15.02;;;;;;;;;;5037016;28;20031;-67
2021/11/16 08:34:16;;;;;;;31.30;14.80;;;;;;;;;;5066263;28;20028;-67
2021/11/16 08:36:44;;;;;;;29.30;14.35;;;;;;;;;;5062335;28;20025;-67
2021/11/16 08:39:11;;;;;;;26.08;13.90;;;;;;;;;;5062223;28;20031;-67
2021/11/16 08:41:39;;;;;;;28.17;14.23;;;;;;;;;;5070119;28;20035;-67
2021/11/16 08:44:14;;;;;;;26.50;13.52;;;;;;;;;;5054740;28;20501;-67
2021/11/16 08:46:41;;;;;;;26.98;14.15;;;;;;;;;;5070834;28;20094;-67
2021/11/16 08:49:07;;;;;;;26.08;13.55;;;;;;;;;;5052267;28;20393;-67
2021/11/16 08:51:43;;;;;;;27.77;13.52;;;;;;;;;;5056752;28;20047;-67
2021/11/16 08:54:10;;;;;;;27.20;13.37;;;;;;;;;;5065702;28;20016;-67
2021/11/16 08:56:39;;;;;;;26.60;13.77;;;;;;;;;;5051355;28;20043;-67
2021/11/16 08:59:16;;;;;;;28.77;14.05;;;;;;;;;;5050952;28;20410;-67
2021/11/16 09:01:58;;;;;;;25.13;12.88;;;;;;;;;;5051546;28;20055;-67
2021/11/16 09:04:29;;;;;;;28.25;13.30;;;;;;;;;;5069527;28;20036;-67
2021/11/16 09:06:56;;;;;;;28.77;13.00;;;;;;;;;;5032748;28;20151;-67
2021/11/16 09:09:22;;;;;;;23.95;12.55;;;;;;;;;;5058431;28;20021;-67
2021/11/16 09:11:58;;;;;;;25.52;13.07;;;;;;;;;;5051485;28;20470;-67
2021/11/16 09:14:24;;;;;;;23.15;12.02;;;;;;;;;;5068866;28;20040;-67
2021/11/16 09:16:49;;;;;;;22.33;12.40;;;;;;;;;;5071714;28;20389;-67
2021/11/16 09:19:31;;;;;;;25.00;12.05;;;;;;;;;;5031521;28;20032;-65
2021/11/16 09:21:58;;;;;;;23.58;12.18;;;;;;;;;;5048353;28;20060;-65
2021/11/16 09:24:35;;;;;;;21.65;11.77;;;;;;;;;;5063146;28;20037;-65
2021/11/16 09:29:32;;;;;;;26.73;11.73;;;;;;;;;;5049688;28;20028;-65
2021/11/16 09:32:05;;;;;;;22.42;11.82;;;;;;;;;;5040158;28;20079;-65
2021/11/16 09:34:33;;;;;;;21.45;11.52;;;;;;;;;;5057769;28;20028;-65
2021/11/16 09:37:03;;;;;;;26.02;11.48;;;;;;;;;;5055827;28;20052;-65
2021/11/16 09:39:32;;;;;;;27.48;11.38;;;;;;;;;;5049089;28;20534;-65
2021/11/16 09:42:02;;;;;;;23.77;10.98;;;;;;;;;;5042631;28;20031;-65
2021/11/16 09:44:31;;;;;;;21.02;10.57;;;;;;;;;;5035520;28;20028;-65
2021/11/16 09:47:04;;;;;;;20.48;11.15;;;;;;;;;;5035611;28;20028;-65
2021/11/16 09:49:34;;;;;;;24.33;11.88;;;;;;;;;;5041478;28;20056;-65
2021/11/16 09:52:22;;;;;;;21.80;11.15;;;;;;;;;;5045798;28;20037;-65
2021/11/16 09:54:58;;;;;;;24.42;11.70;;;;;;;;;;5041834;28;20375;-65
2021/11/16 09:57:31;;;;;;;21.20;12.07;;;;;;;;;;5037377;28;20044;-65
2021/11/16 10:00:09;;;;;;;23.17;11.50;;;;;;;;;;5052118;28;20025;-65
2021/11/16 10:02:48;;;;;;;20.10;11.60;;;;;;;;;;5045320;28;20115;-65
2021/11/16 10:05:20;;;;;;;22.45;11.40;;;;;;;;;;5041413;28;20079;-65
2021/11/16 10:07:46;;;;;;;21.17;10.88;;;;;;;;;;5040648;28;20033;-65
2021/11/16 10:10:12;;;;;;;22.48;11.55;;;;;;;;;;5039899;28;20037;-65
2021/11/16 10:12:44;;;;;;;21.85;11.20;;;;;;;;;;5039436;28;20025;-65
2021/11/16 10:15:15;;;;;;;20.63;11.27;;;;;;;;;;5048749;28;20097;-65
2021/11/16 10:17:42;;;;;;;22.17;11.35;;;;;;;;;;5044269;28;20028;-65
2021/11/16 10:20:09;;;;;;;22.70;11.23;;;;;;;;;;5039785;28;20021;-65
2021/11/16 10:22:35;;;;;;;21.80;10.67;;;;;;;;;;5047351;28;20038;-67
2021/11/16 10:25:18;;;;;;;19.38;11.15;;;;;;;;;;5038627;28;20720;-65
2021/11/16 10:27:46;;;;;;;19.00;10.70;;;;;;;;;;5040896;28;20027;-67
2021/11/16 10:30:30;;;;;;;21.85;11.40;;;;;;;;;;5038109;28;20037;-67
2021/11/16 10:33:18;;;;;;;21.90;11.60;;;;;;;;;;5037552;28;20091;-69
2021/11/16 10:35:46;;;;;;;18.30;10.45;;;;;;;;;;5053361;28;20066;-69
2021/11/16 10:38:16;;;;;;;18.90;10.07;;;;;;;;;;5042558;28;20044;-68
2021/11/16 10:40:42;;;;;;;18.90;10.68;;;;;;;;;;5039415;28;20017;-68
2021/11/16 10:43:09;;;;;;;20.77;11.07;;;;;;;;;;5043623;28;20103;-65
2021/11/16 10:45:39;;;;;;;19.40;10.85;;;;;;;;;;5048362;28;20044;-65
2021/11/16 10:48:09;;;;;;;19.40;10.18;;;;;;;;;;5054201;28;20017;-67
2021/11/16 10:50:37;;;;;;;20.05;10.45;;;;;;;;;;5049174;28;20044;-66
2021/11/16 10:53:09;;;;;;;20.50;11.48;;;;;;;;;;5035526;28;20441;-67
2021/11/16 10:55:49;;;;;;;19.95;10.02;;;;;;;;;;5034235;28;20032;-66
2021/11/16 10:58:36;;;;;;;20.92;10.63;;;;;;;;;;5040645;28;20470;-66
2021/11/16 11:01:08;;;;;;;18.73;10.40;;;;;;;;;;5042409;28;20047;-66
2021/11/16 11:03:39;;;;;;;22.83;10.82;;;;;;;;;;5044187;28;20025;-66
2021/11/16 11:06:14;;;;;;;18.23;10.15;;;;;;;;;;5054485;28;20033;-66
2021/11/16 11:09:01;;;;;;;19.95;10.57;;;;;;;;;;5044334;28;20040;-67
2021/11/16 11:11:32;;;;;;;20.55;10.32;;;;;;;;;;5052691;28;20039;-67
2021/11/16 11:14:03;;;;;;;17.83;9.93;;;;;;;;;;5069589;28;20086;-66
2021/11/16 11:16:32;;;;;;;19.08;9.23;;;;;;;;;;5061952;28;20462;-66
2021/11/16 11:18:58;;;;;;;20.20;10.98;;;;;;;;;;5058559;28;20031;-66
2021/11/16 11:21:49;;;;;;;22.00;10.80;;;;;;;;;;5057493;28;20032;-67
2021/11/16 11:24:17;;;;;;;22.17;11.20;;;;;;;;;;5056352;28;20119;-66
2021/11/16 11:26:46;;;;;;;19.80;10.85;;;;;;;;;;5052802;28;20020;-66
2021/11/16 11:32:10;;;;;;;19.38;9.77;;;;;;;;;;5033766;28;20033;-66
2021/11/16 11:34:40;;;;;;;18.23;9.55;;;;;;;;;;5053538;28;20505;-67
2021/11/16 11:37:13;;;;;;;22.08;10.52;;;;;;;;;;5052153;28;20025;-66
2021/11/16 11:39:38;;;;;;;22.63;10.73;;;;;;;;;;5061341;28;20029;-66
2021/11/16 11:42:06;;;;;;;20.55;10.98;;;;;;;;;;5045736;28;20094;-66
2021/11/16 11:44:40;;;;;;;20.73;11.05;;;;;;;;;;5039030;28;20056;-66
2021/11/16 11:47:07;;;;;;;20.48;11.13;;;;;;;;;;5036496;28;20121;-66
2021/11/16 11:49:33;;;;;;;22.55;11.23;;;;;;;;;;5040702;28;20113;-66
2021/11/16 11:52:02;;;;;;;19.90;10.25;;;;;;;;;;5041703;28;20474;-66
2021/11/16 11:54:28;;;;;;;19.95;9.93;;;;;;;;;;5044430;28;20041;-66
2021/11/16 11:56:55;;;;;;;19.15;10.48;;;;;;;;;;5040711;28;20044;-67
2021/11/16 11:59:22;;;;;;;19.73;10.25;;;;;;;;;;5036657;28;20133;-67
2021/11/16 12:01:48;;;;;;;17.90;9.77;;;;;;;;;;5037842;28;20040;-67
2021/11/16 12:04:16;;;;;;;15.70;8.07;;;;;;;;;;5039443;28;20028;-67
2021/11/16 12:06:42;;;;;;;15.38;9.57;;;;;;;;;;5058356;28;20071;-67
2021/11/16 12:09:08;;;;;;;14.98;7.82;;;;;;;;;;5050858;28;20032;-67
2021/11/16 12:11:34;;;;;;;16.13;8.88;;;;;;;;;;5049538;28;20476;-67
2021/11/16 12:14:06;;;;;;;16.75;9.38;;;;;;;;;;5058192;28;20036;-67
2021/11/16 12:16:56;;;;;;;13.00;7.50;;;;;;;;;;5051596;28;20044;-67
2021/11/16 12:19:21;;;;;;;16.88;8.82;;;;;;;;;;5041576;28;20629;-67
2021/11/16 12:21:49;;;;;;;19.52;9.73;;;;;;;;;;5059343;28;20107;-66
2021/11/16 12:24:32;;;;;;;16.83;9.45;;;;;;;;;;5071221;28;20634;-67
2021/11/16 12:27:05;;;;;;;16.08;9.15;;;;;;;;;;5047785;28;20755;-67
2021/11/16 12:29:34;;;;;;;14.95;8.60;;;;;;;;;;5037116;28;20025;-66
2021/11/16 12:32:24;;;;;;;15.43;8.27;;;;;;;;;;5038013;28;20028;-67
2021/11/16 12:35:13;;;;;;;22.10;11.55;;;;;;;;;;5037484;28;20641;-66
2021/11/16 12:37:46;;;;;;;21.13;10.63;;;;;;;;;;5032674;28;20029;-67
2021/11/16 12:40:15;;;;;;;35.40;14.60;;;;;;;;;;5046025;28;20028;-67
2021/11/16 12:43:06;;;;;;;18.25;9.35;;;;;;;;;;5051886;28;20016;-67
2021/11/16 12:45:57;;;;;;;11.75;7.32;;;;;;;;;;5031321;28;20025;-66
2021/11/16 12:49:03;;;;;;;11.75;6.85;;;;;;;;;;5054191;28;20029;-67
2021/11/16 12:51:34;;;;;;;13.85;6.70;;;;;;;;;;5041035;28;20024;-67
2021/11/16 12:54:07;;;;;;;15.10;7.93;;;;;;;;;;5054097;28;20090;-67
2021/11/16 12:56:41;;;;;;;11.45;6.65;;;;;;;;;;5051426;28;20017;-67
2021/11/16 12:59:10;;;;;;;13.20;7.80;;;;;;;;;;5050191;28;20025;-67
2021/11/16 13:01:37;;;;;;;13.85;7.88;;;;;;;;;;5051172;28;20032;-67
2021/11/16 13:04:05;;;;;;;11.90;6.55;;;;;;;;;;5047717;28;20090;-67
2021/11/16 13:06:31;;;;;;;11.52;7.35;;;;;;;;;;5048808;28;20102;-67
2021/11/16 13:08:57;;;;;;;12.75;6.20;;;;;;;;;;5040638;28;20017;-67
2021/11/16 13:11:39;;;;;;;12.07;7.18;;;;;;;;;;5044306;28;20032;-67
2021/11/16 13:14:05;;;;;;;11.32;6.80;;;;;;;;;;5036426;28;21690;-67
2021/11/16 13:16:30;;;;;;;11.38;7.20;;;;;;;;;;5036267;28;20083;-67
2021/11/16 13:18:59;;;;;;;13.15;6.40;;;;;;;;;;5043450;28;20108;-67
2021/11/16 13:21:26;;;;;;;10.93;6.65;;;;;;;;;;5035508;28;20385;-67
2021/11/16 13:23:54;;;;;;;12.88;6.75;;;;;;;;;;5047548;28;20528;-67
2021/11/16 13:26:22;;;;;;;12.23;6.07;;;;;;;;;;5033853;28;20029;-67
2021/11/16 13:31:39;;;;;;;14.10;8.38;;;;;;;;;;5037506;28;19963;-67
2021/11/16 13:34:10;;;;;;;11.90;7.60;;;;;;;;;;5034161;28;20034;-67
2021/11/16 13:36:35;;;;;;;14.52;8.68;;;;;;;;;;5034832;28;20064;-68
2021/11/16 13:39:12;;;;;;;15.45;8.90;;;;;;;;;;5039030;28;20029;-68
2021/11/16 13:42:00;;;;;;;12.60;6.60;;;;;;;;;;5042345;28;20033;-67
2021/11/16 13:44:41;;;;;;;13.93;7.50;;;;;;;;;;5056813;28;20065;-67
2021/11/16 13:47:27;;;;;;;13.18;7.53;;;;;;;;;;5036821;28;20091;-67
2021/11/16 13:49:56;;;;;;;13.52;8.35;;;;;;;;;;5036060;28;20028;-67
2021/11/16 13:52:34;;;;;;;14.98;8.25;;;;;;;;;;5042236;28;20056;-67
2021/11/16 13:55:05;;;;;;;12.32;7.82;;;;;;;;;;5037678;28;20033;-66
2021/11/16 13:57:34;;;;;;;13.82;7.85;;;;;;;;;;5044840;28;20029;-67
2021/11/16 14:00:13;;;;;;;14.32;8.80;;;;;;;;;;5048598;28;20021;-67
2021/11/16 14:02:44;;;;;;;15.65;8.25;;;;;;;;;;5046575;28;20374;-67
2021/11/16 14:05:10;;;;;;;13.85;8.15;;;;;;;;;;5045003;28;20060;-67
2021/11/16 14:07:36;;;;;;;15.95;8.82;;;;;;;;;;5032543;28;20512;-67
2021/11/16 14:10:16;;;;;;;15.65;8.77;;;;;;;;;;5043739;28;20414;-67
2021/11/16 14:12:44;;;;;;;14.43;9.00;;;;;;;;;;5035780;28;20082;-67
2021/11/16 14:15:15;;;;;;;15.68;9.48;;;;;;;;;;5050038;28;20036;-67
2021/11/16 14:17:42;;;;;;;19.55;9.52;;;;;;;;;;5052597;28;20036;-67
2021/11/16 14:20:08;;;;;;;17.23;9.57;;;;;;;;;;5049289;28;20104;-67
2021/11/16 14:22:38;;;;;;;15.52;9.50;;;;;;;;;;5050630;28;20109;-67
2021/11/16 14:25:23;;;;;;;15.13;9.48;;;;;;;;;;5047756;28;20381;-67
2021/11/16 14:28:00;;;;;;;18.65;9.55;;;;;;;;;;5049829;28;20009;-67
2021/11/16 14:30:28;;;;;;;19.27;10.18;;;;;;;;;;5035429;28;20041;-67
2021/11/16 14:33:09;;;;;;;20.00;10.90;;;;;;;;;;5029060;28;20029;-67
2021/11/16 14:35:36;;;;;;;17.42;9.77;;;;;;;;;;5035386;28;20033;-67
2021/11/16 14:38:03;;;;;;;18.90;9.50;;;;;;;;;;5043697;28;20091;-67
2021/11/16 14:40:30;;;;;;;17.92;9.95;;;;;;;;;;5031883;28;20106;-67
2021/11/16 14:42:57;;;;;;;17.77;10.02;;;;;;;;;;5046044;28;20044;-67
2021/11/16 14:45:32;;;;;;;19.83;10.25;;;;;;;;;;5043316;28;20051;-67
2021/11/16 14:48:02;;;;;;;20.27;10.48;;;;;;;;;;5048462;28;20021;-67
2021/11/16 14:50:34;;;;;;;16.08;9.32;;;;;;;;;;5046366;28;20033;-67
2021/11/16 14:53:02;;;;;;;17.58;9.80;;;;;;;;;;5037266;28;20045;-67
2021/11/16 14:55:28;;;;;;;20.02;9.88;;;;;;;;;;5042085;28;20116;-67
2021/11/16 14:57:58;;;;;;;15.45;9.05;;;;;;;;;;5051575;28;20163;-67
2021/11/16 15:00:33;;;;;;;16.50;9.88;;;;;;;;;;5044287;28;20040;-67
2021/11/16 15:03:06;;;;;;;18.55;10.20;;;;;;;;;;5043129;28;20016;-67